createdAt,value
2024-02-29T00:01:19.814Z,3.85
2024-02-29T00:03:46.353Z,4.05
2024-02-29T00:06:12.769Z,3.83
2024-02-29T00:08:39.174Z,4.13
2024-02-29T00:11:05.659Z,3.55
2024-02-29T00:13:32.056Z,3.70
2024-02-29T00:15:58.538Z,3.88
2024-02-29T00:18:25.004Z,3.85
2024-02-29T00:20:51.412Z,4.22
2024-02-29T00:23:17.872Z,4.20
2024-02-29T00:25:44.291Z,3.90
2024-02-29T00:28:10.786Z,4.18
2024-02-29T00:30:37.308Z,3.97
2024-02-29T00:33:03.790Z,4.10
2024-02-29T00:35:30.266Z,4.20
2024-02-29T00:37:56.707Z,4.00
2024-02-29T00:40:23.319Z,4.00
2024-02-29T00:42:49.858Z,3.95
2024-02-29T00:45:16.319Z,4.72
2024-02-29T00:47:42.748Z,4.32
2024-02-29T00:50:09.238Z,4.22
2024-02-29T00:52:35.669Z,3.72
2024-02-29T00:55:02.097Z,4.38
2024-02-29T00:57:28.624Z,4.60
2024-02-29T00:59:55.064Z,3.95
2024-02-29T01:02:21.479Z,4.45
2024-02-29T01:04:47.907Z,4.22
2024-02-29T01:07:14.431Z,4.60
2024-02-29T01:09:40.924Z,4.32
2024-02-29T01:12:07.399Z,4.55
2024-02-29T01:14:33.820Z,4.32
2024-02-29T01:17:00.206Z,5.10
2024-02-29T01:19:26.643Z,4.68
2024-02-29T01:21:53.088Z,4.70
2024-02-29T01:24:19.506Z,4.50
2024-02-29T01:26:45.944Z,4.60
2024-02-29T01:29:12.375Z,4.38
2024-02-29T01:31:38.825Z,4.43
2024-02-29T01:34:05.305Z,4.95
2024-02-29T01:36:31.783Z,4.80
2024-02-29T01:38:58.211Z,4.43
2024-02-29T01:41:24.632Z,4.80
2024-02-29T01:43:51.036Z,4.70
2024-02-29T01:46:17.472Z,4.80
2024-02-29T01:48:44.019Z,4.63
2024-02-29T01:51:10.423Z,4.70
2024-02-29T01:53:36.876Z,4.80
2024-02-29T01:56:03.325Z,4.60
2024-02-29T01:58:29.755Z,5.10
2024-02-29T02:00:56.278Z,4.75
2024-02-29T02:03:22.761Z,4.70
2024-02-29T02:05:49.166Z,4.60
2024-02-29T02:08:15.610Z,4.90
2024-02-29T02:10:41.996Z,5.15
2024-02-29T02:13:08.453Z,4.78
2024-02-29T02:15:34.945Z,4.68
2024-02-29T02:18:01.460Z,4.63
2024-02-29T02:20:27.900Z,4.75
2024-02-29T02:22:54.330Z,4.43
2024-02-29T02:25:20.749Z,4.55
2024-02-29T02:27:47.235Z,4.88
2024-02-29T02:30:13.742Z,4.57
2024-02-29T02:32:40.253Z,4.57
2024-02-29T02:35:06.725Z,4.70
2024-02-29T02:37:33.132Z,4.40
2024-02-29T02:39:59.611Z,4.70
2024-02-29T02:42:26.083Z,4.60
2024-02-29T02:44:52.481Z,4.82
2024-02-29T02:47:18.907Z,5.45
2024-02-29T02:49:45.393Z,5.03
2024-02-29T02:52:11.928Z,4.90
2024-02-29T02:54:38.414Z,4.90
2024-02-29T02:57:04.829Z,4.70
2024-02-29T02:59:31.275Z,4.80
2024-02-29T03:01:57.712Z,4.60
2024-02-29T03:04:24.170Z,4.68
2024-02-29T03:06:50.590Z,4.57
2024-02-29T03:09:17.069Z,5.00
2024-02-29T03:11:43.480Z,4.88
2024-02-29T03:14:09.876Z,4.90
2024-02-29T03:16:36.311Z,5.20
2024-02-29T03:19:02.807Z,4.35
2024-02-29T03:21:29.356Z,4.60
2024-02-29T03:23:55.808Z,4.80
2024-02-29T03:26:22.229Z,4.97
2024-02-29T03:28:48.709Z,5.20
2024-02-29T03:31:15.178Z,4.28
2024-02-29T03:33:41.689Z,4.70
2024-02-29T03:36:08.176Z,4.75
2024-02-29T03:38:34.598Z,4.43
2024-02-29T03:41:01.007Z,4.80
2024-02-29T03:43:27.440Z,4.55
2024-02-29T03:45:53.891Z,4.70
2024-02-29T03:48:20.331Z,4.53
2024-02-29T03:50:46.763Z,4.78
2024-02-29T03:53:13.179Z,4.40
2024-02-29T03:55:39.608Z,5.05
2024-02-29T03:58:06.127Z,5.32
2024-02-29T04:00:32.668Z,4.55
2024-02-29T04:02:59.110Z,4.28
2024-02-29T04:05:25.746Z,4.75
2024-02-29T04:07:52.345Z,4.82
2024-02-29T04:10:18.813Z,5.13
2024-02-29T04:12:45.319Z,4.32
2024-02-29T04:15:11.845Z,4.60
2024-02-29T04:17:38.249Z,5.03
2024-02-29T04:20:04.682Z,4.90
2024-02-29T04:22:31.178Z,4.40
2024-02-29T04:24:57.646Z,4.75
2024-02-29T04:27:24.108Z,4.35
2024-02-29T04:29:50.545Z,4.20
2024-02-29T04:32:16.924Z,4.68
2024-02-29T04:34:43.395Z,4.75
2024-02-29T04:37:10.018Z,4.70
2024-02-29T04:39:36.534Z,4.28
2024-02-29T04:42:03.022Z,4.97
2024-02-29T04:44:29.442Z,4.75
2024-02-29T04:46:55.864Z,4.55
2024-02-29T04:49:22.346Z,4.88
2024-02-29T04:51:48.840Z,4.68
2024-02-29T04:54:15.336Z,4.63
2024-02-29T04:56:41.755Z,4.80
2024-02-29T04:59:08.202Z,5.13
2024-02-29T05:01:34.859Z,4.68
2024-02-29T05:04:01.531Z,4.47
2024-02-29T05:06:28.042Z,4.78
2024-02-29T05:08:54.477Z,4.63
2024-02-29T05:11:20.908Z,4.68
2024-02-29T05:13:47.398Z,14.05
2024-02-29T05:16:13.824Z,11.90
2024-02-29T05:18:40.281Z,10.27
2024-02-29T05:21:06.799Z,10.25
2024-02-29T05:23:33.270Z,9.98
2024-02-29T05:25:59.672Z,9.25
2024-02-29T05:28:26.093Z,8.55
2024-02-29T05:30:52.584Z,8.90
2024-02-29T05:33:19.012Z,7.95
2024-02-29T05:35:45.532Z,8.23
2024-02-29T05:38:12.023Z,8.10
2024-02-29T05:40:38.634Z,7.28
2024-02-29T05:43:05.223Z,23.55
2024-02-29T05:45:31.724Z,23.92
2024-02-29T05:47:58.184Z,17.65
2024-02-29T05:50:24.639Z,16.77
2024-02-29T05:52:51.084Z,17.73
2024-02-29T05:55:17.523Z,17.55
2024-02-29T05:57:44.029Z,16.33
2024-02-29T06:00:10.479Z,15.68
2024-02-29T06:02:39.828Z,15.77
2024-02-29T06:05:06.322Z,14.38
2024-02-29T06:07:32.738Z,16.17
2024-02-29T06:09:59.219Z,15.48
2024-02-29T06:12:25.685Z,16.25
2024-02-29T06:14:52.118Z,14.52
2024-02-29T06:17:18.576Z,14.43
2024-02-29T06:19:45.020Z,15.18
2024-02-29T06:22:11.513Z,13.15
2024-02-29T06:24:37.960Z,14.15
2024-02-29T06:27:04.410Z,12.85
2024-02-29T06:29:30.830Z,13.60
2024-02-29T06:31:57.258Z,14.25
2024-02-29T06:34:23.794Z,13.57
2024-02-29T06:36:50.298Z,12.82
2024-02-29T06:39:16.719Z,13.30
2024-02-29T06:41:43.222Z,12.73
2024-02-29T06:44:09.654Z,12.77
2024-02-29T06:46:36.069Z,11.73
2024-02-29T06:49:02.560Z,12.07
2024-02-29T06:51:28.987Z,12.30
2024-02-29T06:53:55.424Z,13.40
2024-02-29T06:56:21.851Z,11.63
2024-02-29T06:58:48.256Z,12.25
2024-02-29T07:01:14.757Z,12.20
2024-02-29T07:03:41.238Z,11.52
2024-02-29T07:06:07.686Z,11.82
2024-02-29T07:08:34.121Z,11.30
2024-02-29T07:11:02.392Z,11.27
2024-02-29T07:13:29.314Z,11.20
2024-02-29T07:15:55.849Z,11.32
2024-02-29T07:18:22.375Z,11.32
2024-02-29T07:20:48.797Z,11.90
2024-02-29T07:23:15.226Z,11.25
2024-02-29T07:25:41.724Z,10.80
2024-02-29T07:28:08.177Z,10.38
2024-02-29T07:30:34.698Z,11.43
2024-02-29T07:33:01.247Z,10.82
2024-02-29T07:35:27.670Z,10.15
2024-02-29T07:37:55.047Z,10.18
2024-02-29T07:40:21.766Z,9.95
2024-02-29T07:42:48.327Z,9.55
2024-02-29T07:45:17.283Z,9.02
2024-02-29T07:47:44.943Z,9.73
2024-02-29T07:50:11.388Z,10.07
2024-02-29T07:52:37.857Z,10.40
2024-02-29T07:55:04.357Z,9.02
2024-02-29T07:57:30.771Z,10.50
2024-02-29T07:59:57.269Z,10.25
2024-02-29T08:02:24.867Z,8.93
2024-02-29T08:04:51.464Z,9.23
2024-02-29T08:07:18.001Z,9.63
2024-02-29T08:09:44.488Z,9.25
2024-02-29T08:12:10.942Z,9.63
2024-02-29T08:14:37.377Z,28.77
2024-02-29T08:17:03.838Z,22.38
2024-02-29T08:19:30.221Z,20.23
2024-02-29T08:21:56.680Z,19.10
2024-02-29T08:24:23.124Z,18.98
2024-02-29T08:26:49.538Z,18.75
2024-02-29T08:29:16.009Z,17.55
2024-02-29T08:31:42.592Z,17.38
2024-02-29T08:34:09.265Z,16.88
2024-02-29T08:36:35.817Z,17.80
2024-02-29T08:39:02.301Z,21.88
2024-02-29T08:41:28.701Z,21.05
2024-02-29T08:43:55.160Z,21.92
2024-02-29T08:46:21.653Z,19.83
2024-02-29T08:48:48.228Z,19.15
2024-02-29T08:51:14.776Z,18.17
2024-02-29T08:53:41.204Z,18.95
2024-02-29T08:56:07.633Z,18.60
2024-02-29T08:58:34.109Z,17.23
2024-02-29T09:01:01.080Z,16.80
2024-02-29T09:03:27.631Z,16.50
2024-02-29T09:05:54.108Z,17.83
2024-02-29T09:08:22.789Z,16.85
2024-02-29T09:10:49.489Z,16.65
2024-02-29T09:13:26.206Z,15.63
2024-02-29T09:15:57.408Z,16.02
2024-02-29T09:18:23.899Z,15.77
2024-02-29T09:20:50.330Z,14.80
2024-02-29T09:23:16.726Z,15.10
2024-02-29T09:25:43.306Z,22.30
2024-02-29T09:28:09.765Z,18.73
2024-02-29T09:30:36.259Z,17.88
2024-02-29T09:33:02.766Z,16.33
2024-02-29T09:35:29.227Z,18.88
2024-02-29T09:37:55.669Z,20.52
2024-02-29T09:40:22.244Z,20.08
2024-02-29T09:42:48.835Z,20.40
2024-02-29T09:45:15.282Z,20.20
2024-02-29T09:47:41.742Z,20.85
2024-02-29T09:50:08.168Z,19.63
2024-02-29T09:52:34.579Z,19.30
2024-02-29T09:55:01.087Z,18.63
2024-02-29T09:57:27.595Z,20.83
2024-02-29T09:59:54.048Z,18.67
2024-02-29T10:02:20.471Z,19.60
2024-02-29T10:04:46.917Z,18.73
2024-02-29T10:07:13.378Z,18.40
2024-02-29T10:09:39.881Z,17.92
2024-02-29T10:12:06.453Z,18.20
2024-02-29T10:14:32.939Z,18.05
2024-02-29T10:16:59.374Z,18.50
2024-02-29T10:19:25.941Z,17.00
2024-02-29T10:21:52.450Z,17.00
2024-02-29T10:24:18.953Z,17.63
2024-02-29T10:26:45.380Z,19.02
2024-02-29T10:29:11.848Z,17.73
2024-02-29T10:31:39.756Z,19.10
2024-02-29T10:34:06.553Z,17.88
2024-02-29T10:36:33.012Z,18.25
2024-02-29T10:38:59.445Z,17.25
2024-02-29T10:41:25.851Z,17.10
2024-02-29T10:43:52.293Z,16.88
2024-02-29T10:46:18.781Z,17.63
2024-02-29T10:48:45.253Z,16.58
2024-02-29T10:51:11.763Z,15.65
2024-02-29T10:53:38.191Z,16.90
2024-02-29T10:56:04.601Z,15.80
2024-02-29T10:58:31.030Z,17.00
2024-02-29T11:00:57.574Z,16.35
2024-02-29T11:03:24.025Z,15.20
2024-02-29T11:05:50.507Z,14.60
2024-02-29T11:08:16.931Z,15.45
2024-02-29T11:10:43.453Z,14.02
2024-02-29T11:13:09.970Z,13.70
2024-02-29T11:15:37.014Z,13.27
2024-02-29T11:18:03.727Z,12.82
2024-02-29T11:20:32.139Z,12.70
2024-02-29T11:23:00.950Z,12.38
2024-02-29T11:25:29.816Z,13.10
2024-02-29T11:27:56.310Z,13.10
2024-02-29T11:30:22.804Z,12.82
2024-02-29T11:32:49.270Z,13.00
2024-02-29T11:35:15.769Z,12.77
2024-02-29T11:37:42.206Z,12.80
2024-02-29T11:40:08.782Z,12.63
2024-02-29T11:42:35.301Z,12.27
2024-02-29T11:45:01.735Z,12.13
2024-02-29T11:47:28.250Z,11.10
2024-02-29T11:49:54.664Z,11.52
2024-02-29T11:52:21.221Z,11.73
2024-02-29T11:54:47.742Z,12.40
2024-02-29T11:57:14.170Z,12.20
2024-02-29T11:59:40.637Z,12.52
2024-02-29T12:02:07.184Z,15.95
2024-02-29T12:04:35.059Z,14.55
2024-02-29T12:07:01.732Z,14.82
2024-02-29T12:09:28.187Z,13.93
2024-02-29T12:11:54.655Z,13.95
2024-02-29T12:14:21.123Z,13.57
2024-02-29T12:16:47.596Z,13.07
2024-02-29T12:19:14.147Z,13.90
2024-02-29T12:21:40.662Z,13.75
2024-02-29T12:24:07.129Z,13.18
2024-02-29T12:26:33.577Z,13.38
2024-02-29T12:29:00.032Z,12.45
2024-02-29T12:31:26.534Z,13.18
2024-02-29T12:33:52.995Z,16.17
2024-02-29T12:36:19.615Z,15.68
2024-02-29T12:38:46.096Z,14.68
2024-02-29T12:41:12.514Z,15.10
2024-02-29T12:43:38.975Z,14.50
2024-02-29T12:46:05.500Z,14.00
2024-02-29T12:48:32.031Z,13.77
2024-02-29T12:50:58.514Z,14.35
2024-02-29T12:53:24.957Z,13.73
2024-02-29T12:55:51.395Z,13.85
2024-02-29T12:58:17.828Z,29.58
2024-02-29T13:00:44.801Z,23.13
2024-02-29T13:03:11.792Z,21.30
2024-02-29T13:05:38.294Z,20.45
2024-02-29T13:08:04.725Z,19.65
2024-02-29T13:10:31.243Z,19.00
2024-02-29T13:13:03.948Z,17.70
2024-02-29T13:15:36.271Z,16.88
2024-02-29T13:18:02.753Z,17.48
2024-02-29T13:20:29.189Z,17.13
2024-02-29T13:22:55.655Z,16.23
2024-02-29T13:25:22.190Z,16.65
2024-02-29T13:27:48.771Z,15.63
2024-02-29T13:30:15.221Z,16.27
2024-02-29T13:32:41.663Z,16.23
2024-02-29T13:35:08.084Z,15.98
2024-02-29T13:37:34.548Z,15.50
2024-02-29T13:40:01.026Z,16.05
2024-02-29T13:42:27.487Z,15.90
2024-02-29T13:44:53.899Z,15.15
2024-02-29T13:47:20.331Z,16.33
2024-02-29T13:49:46.750Z,14.75
2024-02-29T13:52:13.256Z,15.88
2024-02-29T13:54:39.731Z,15.07
2024-02-29T13:57:06.193Z,15.90
2024-02-29T13:59:32.645Z,14.48
2024-02-29T14:01:59.175Z,15.15
2024-02-29T14:04:25.735Z,15.45
2024-02-29T14:06:52.275Z,15.20
2024-02-29T14:09:18.735Z,15.18
2024-02-29T14:11:45.172Z,14.55
2024-02-29T14:14:11.623Z,14.85
2024-02-29T14:16:38.083Z,14.20
2024-02-29T14:19:04.601Z,14.55
2024-02-29T14:21:31.149Z,14.25
2024-02-29T14:23:57.560Z,14.95
2024-02-29T14:26:23.956Z,14.75
2024-02-29T14:28:50.403Z,14.30
2024-02-29T14:31:16.894Z,14.25
2024-02-29T14:33:43.365Z,13.88
2024-02-29T14:36:09.815Z,14.63
2024-02-29T14:38:36.236Z,14.52
2024-02-29T14:41:02.660Z,15.25
2024-02-29T14:43:29.112Z,14.35
2024-02-29T14:45:55.596Z,14.60
2024-02-29T14:48:22.082Z,15.20
2024-02-29T14:50:48.513Z,13.88
2024-02-29T14:53:14.942Z,14.45
2024-02-29T14:55:41.326Z,14.90
2024-02-29T14:58:07.779Z,15.02
2024-02-29T15:00:34.192Z,14.20
2024-02-29T15:03:00.599Z,14.98
2024-02-29T15:05:27.050Z,15.23
2024-02-29T15:07:53.479Z,15.98
2024-02-29T15:10:19.951Z,16.98
2024-02-29T15:12:46.444Z,16.50
2024-02-29T15:15:12.877Z,15.98
2024-02-29T15:17:39.379Z,17.08
2024-02-29T15:20:05.888Z,16.38
2024-02-29T15:22:32.295Z,16.45
2024-02-29T15:24:58.721Z,15.05
2024-02-29T15:27:25.273Z,33.28
2024-02-29T15:29:51.831Z,34.95
2024-02-29T15:32:18.258Z,78.95
2024-02-29T15:34:47.401Z,67.97
2024-02-29T15:37:14.454Z,60.15
2024-02-29T15:39:40.952Z,56.55
2024-02-29T15:42:07.438Z,50.75
2024-02-29T15:44:33.838Z,47.60
2024-02-29T15:47:00.257Z,44.28
2024-02-29T15:49:26.805Z,44.00
2024-02-29T15:51:53.353Z,41.00
2024-02-29T15:54:19.815Z,41.60
2024-02-29T15:56:46.304Z,39.65
2024-02-29T15:59:12.748Z,39.67
2024-02-29T16:01:39.253Z,35.78
2024-02-29T16:04:05.755Z,36.85
2024-02-29T16:06:32.255Z,33.72
2024-02-29T16:08:58.657Z,32.13
2024-02-29T16:11:25.111Z,32.50
2024-02-29T16:13:51.559Z,33.28
2024-02-29T16:16:18.099Z,32.08
2024-02-29T16:18:44.669Z,31.30
2024-02-29T16:21:11.098Z,29.67
2024-02-29T16:23:37.530Z,30.25
2024-02-29T16:26:03.974Z,28.58
2024-02-29T16:28:30.473Z,29.10
2024-02-29T16:30:56.986Z,27.77
2024-02-29T16:33:23.412Z,26.10
2024-02-29T16:35:49.851Z,26.45
2024-02-29T16:38:16.283Z,26.15
2024-02-29T16:40:42.704Z,25.40
2024-02-29T16:43:09.179Z,23.98
2024-02-29T16:45:35.591Z,23.48
2024-02-29T16:48:02.060Z,23.88
2024-02-29T16:50:28.607Z,23.30
2024-02-29T16:52:55.031Z,22.73
2024-02-29T16:55:21.511Z,21.75
2024-02-29T16:57:47.982Z,22.13
2024-02-29T17:00:14.412Z,23.35
2024-02-29T17:02:40.856Z,22.45
2024-02-29T17:05:07.334Z,20.92
2024-02-29T17:07:33.769Z,21.27
2024-02-29T17:10:00.493Z,20.63
2024-02-29T17:12:27.072Z,20.40
2024-02-29T17:14:53.464Z,20.50
2024-02-29T17:17:20.621Z,20.73
2024-02-29T17:19:47.048Z,21.90
2024-02-29T17:22:13.524Z,19.73
2024-02-29T17:24:40.011Z,19.83
2024-02-29T17:27:06.417Z,19.45
2024-02-29T17:29:32.863Z,19.60
2024-02-29T17:31:59.304Z,19.65
2024-02-29T17:34:25.815Z,18.83
2024-02-29T17:36:52.411Z,18.83
2024-02-29T17:39:18.881Z,18.73
2024-02-29T17:41:45.271Z,18.05
2024-02-29T17:44:11.718Z,17.80
2024-02-29T17:46:38.125Z,17.60
2024-02-29T17:49:04.595Z,17.10
2024-02-29T17:51:31.078Z,17.58
2024-02-29T17:53:57.489Z,19.05
2024-02-29T17:56:23.916Z,17.08
2024-02-29T17:58:50.500Z,17.13
2024-02-29T18:01:17.058Z,16.13
2024-02-29T18:03:43.562Z,16.77
2024-02-29T18:06:09.958Z,16.13
2024-02-29T18:08:36.373Z,16.98
2024-02-29T18:11:02.855Z,16.52
2024-02-29T18:13:29.327Z,16.25
2024-02-29T18:15:55.832Z,16.27
2024-02-29T18:18:22.261Z,15.75
2024-02-29T18:20:48.674Z,16.95
2024-02-29T18:23:15.115Z,15.60
2024-02-29T18:25:41.650Z,16.25
2024-02-29T18:28:08.125Z,15.45
2024-02-29T18:30:34.589Z,15.52
2024-02-29T18:33:01.072Z,14.68
2024-02-29T18:35:27.498Z,14.85
2024-02-29T18:37:53.936Z,14.18
2024-02-29T18:40:20.402Z,14.65
2024-02-29T18:42:46.836Z,14.98
2024-02-29T18:45:13.270Z,14.65
2024-02-29T18:47:39.831Z,14.57
2024-02-29T18:50:06.325Z,13.85
2024-02-29T18:52:32.833Z,14.38
2024-02-29T18:54:59.302Z,14.70
2024-02-29T18:57:25.777Z,13.80
2024-02-29T18:59:52.204Z,13.48
2024-02-29T19:02:18.620Z,13.85
2024-02-29T19:04:45.108Z,13.25
2024-02-29T19:07:11.620Z,14.05
2024-02-29T19:09:38.118Z,13.57
2024-02-29T19:12:04.560Z,14.23
2024-02-29T19:14:30.987Z,13.73
2024-02-29T19:16:57.394Z,13.77
2024-02-29T19:19:24.049Z,13.80
2024-02-29T19:21:50.573Z,13.85
2024-02-29T19:24:16.998Z,13.07
2024-02-29T19:26:43.437Z,13.60
2024-02-29T19:29:09.884Z,12.52
2024-02-29T19:31:36.287Z,13.30
2024-02-29T19:34:02.762Z,14.45
2024-02-29T19:36:29.190Z,14.00
2024-02-29T19:38:55.596Z,13.13
2024-02-29T19:41:23.199Z,13.02
2024-02-29T19:43:49.587Z,12.93
2024-02-29T19:46:16.256Z,12.85
2024-02-29T19:48:42.781Z,13.45
2024-02-29T19:51:09.210Z,12.90
2024-02-29T19:53:35.642Z,12.63
2024-02-29T19:56:02.070Z,12.65
2024-02-29T19:58:28.586Z,12.85
2024-02-29T20:00:55.138Z,11.93
2024-02-29T20:03:21.633Z,13.65
2024-02-29T20:05:48.023Z,13.15
2024-02-29T20:08:14.450Z,12.88
2024-02-29T20:10:40.890Z,12.65
2024-02-29T20:13:07.352Z,11.95
2024-02-29T20:15:33.834Z,12.93
2024-02-29T20:18:00.344Z,11.40
2024-02-29T20:20:26.775Z,11.90
2024-02-29T20:22:53.203Z,12.32
2024-02-29T20:25:19.652Z,12.50
2024-02-29T20:27:46.088Z,11.38
2024-02-29T20:30:12.539Z,12.10
2024-02-29T20:32:38.971Z,12.07
2024-02-29T20:35:05.413Z,10.95
2024-02-29T20:37:31.936Z,11.00
2024-02-29T20:39:58.409Z,11.98
2024-02-29T20:42:24.849Z,11.60
2024-02-29T20:44:51.251Z,12.48
2024-02-29T20:47:18.011Z,11.35
2024-02-29T20:49:44.453Z,12.00
2024-02-29T20:52:12.412Z,11.68
2024-02-29T20:54:39.978Z,11.07
2024-02-29T20:57:06.394Z,11.98
2024-02-29T20:59:32.813Z,11.35
2024-02-29T21:01:59.481Z,11.60
2024-02-29T21:04:26.143Z,11.82
2024-02-29T21:06:52.615Z,11.90
2024-02-29T21:09:19.048Z,12.23
2024-02-29T21:11:45.474Z,12.27
2024-02-29T21:14:11.917Z,12.45
2024-02-29T21:16:38.361Z,11.90
2024-02-29T21:19:04.860Z,11.88
2024-02-29T21:21:31.373Z,12.13
2024-02-29T21:23:57.868Z,11.52
2024-02-29T21:26:24.309Z,11.63
2024-02-29T21:28:50.747Z,11.55
2024-02-29T21:31:17.176Z,11.95
2024-02-29T21:33:43.686Z,12.48
2024-02-29T21:36:10.139Z,11.30
2024-02-29T21:38:36.572Z,12.15
2024-02-29T21:41:03.038Z,12.30
2024-02-29T21:43:29.474Z,12.13
2024-02-29T21:45:55.975Z,12.63
2024-02-29T21:48:22.440Z,11.70
2024-02-29T21:50:48.868Z,11.60
2024-02-29T21:53:15.339Z,11.70
2024-02-29T21:55:41.780Z,12.15
2024-02-29T21:58:08.222Z,12.15
2024-02-29T22:00:34.680Z,11.57
2024-02-29T22:03:01.115Z,11.73
2024-02-29T22:05:27.500Z,11.75
2024-02-29T22:07:53.948Z,11.90
2024-02-29T22:10:20.421Z,11.93
2024-02-29T22:12:46.884Z,12.68
2024-02-29T22:15:13.412Z,12.73
2024-02-29T22:17:39.917Z,12.57
2024-02-29T22:20:06.335Z,12.40
2024-02-29T22:22:32.814Z,12.35
2024-02-29T22:24:59.326Z,12.35
2024-02-29T22:27:25.795Z,12.30
2024-02-29T22:29:52.253Z,12.13
2024-02-29T22:32:18.670Z,12.32
2024-02-29T22:34:45.119Z,11.93
2024-02-29T22:37:11.563Z,11.85
2024-02-29T22:39:38.035Z,12.10
2024-02-29T22:42:04.465Z,12.38
2024-02-29T22:44:30.936Z,11.95
2024-02-29T22:46:57.383Z,12.48
2024-02-29T22:49:23.932Z,12.55
2024-02-29T22:51:50.497Z,11.82
2024-02-29T22:54:16.944Z,11.75
2024-02-29T22:56:43.370Z,12.10
2024-02-29T22:59:09.793Z,12.35
2024-02-29T23:01:36.387Z,11.93
2024-02-29T23:04:02.944Z,12.18
2024-02-29T23:06:29.376Z,11.88
2024-02-29T23:08:55.836Z,12.07
2024-02-29T23:11:22.374Z,11.70
2024-02-29T23:13:48.804Z,11.95
2024-02-29T23:16:15.380Z,12.02
2024-02-29T23:18:41.856Z,12.43
2024-02-29T23:21:08.295Z,11.90
2024-02-29T23:23:34.720Z,11.43
2024-02-29T23:26:01.189Z,11.25
2024-02-29T23:28:27.670Z,11.88
2024-02-29T23:30:54.110Z,11.77
2024-02-29T23:33:20.843Z,11.68
2024-02-29T23:35:47.334Z,11.15
2024-02-29T23:38:13.775Z,11.55
2024-02-29T23:40:40.284Z,11.43
2024-02-29T23:43:06.885Z,11.30
2024-02-29T23:45:33.297Z,11.10
2024-02-29T23:47:59.787Z,11.60
2024-02-29T23:50:26.257Z,11.38
2024-02-29T23:52:52.675Z,11.85
2024-02-29T23:55:19.248Z,11.57
2024-02-29T23:57:45.746Z,10.82
